Time;durP1;ratioP1;P1;durP2;ratioP2;P2;SDS_P1;SDS_P2;PMS_P1;PMS_P2;Temp;Humidity;BMP_temperature;BMP_pressure;BME280_temperature;BME280_humidity;BME280_pressure;Samples;Min_cycle;Max_cycle;Signal;HPM_P1;HPM_P2
2023/06/18 00:00:34;;;;;;;6.38;4.07;;;21.80;34.00;;;;;;4994980;28;20050;-87
2023/06/18 00:03:02;;;;;;;8.15;4.60;;;21.70;34.20;;;;;;4998473;28;20054;-87
2023/06/18 00:05:29;;;;;;;6.38;4.55;;;21.70;34.20;;;;;;4999643;28;20413;-86
2023/06/18 00:07:57;;;;;;;7.72;4.38;;;21.60;34.20;;;;;;4997740;28;20058;-86
2023/06/18 00:10:26;;;;;;;6.03;3.97;;;21.60;34.10;;;;;;4998855;28;20057;-88
2023/06/18 00:12:53;;;;;;;6.60;4.22;;;21.60;34.30;;;;;;4995751;28;20049;-86
2023/06/18 00:15:21;;;;;;;5.57;4.00;;;21.50;34.30;;;;;;4998833;28;20514;-86
2023/06/18 00:17:49;;;;;;;6.13;4.15;;;21.50;34.30;;;;;;4998996;28;20054;-86
2023/06/18 00:20:16;;;;;;;7.65;4.22;;;21.50;34.40;;;;;;4997797;28;20057;-86
2023/06/18 00:22:48;;;;;;;5.80;4.15;;;21.40;34.30;;;;;;4998674;28;20050;-86
2023/06/18 00:25:15;;;;;;;5.47;4.40;;;21.40;34.40;;;;;;4994568;28;20502;-86
2023/06/18 00:27:44;;;;;;;7.47;4.68;;;21.40;34.70;;;;;;4997905;28;20076;-88
2023/06/18 00:30:13;;;;;;;6.07;4.10;;;21.30;34.90;;;;;;4998226;28;20057;-86
2023/06/18 00:32:44;;;;;;;6.18;4.43;;;21.30;35.00;;;;;;4993442;28;20061;-87
2023/06/18 00:35:12;;;;;;;5.93;4.15;;;21.30;35.10;;;;;;5001120;28;20069;-85
2023/06/18 00:37:43;;;;;;;6.57;4.60;;;21.30;35.10;;;;;;4998715;28;20061;-85
2023/06/18 00:40:12;;;;;;;6.03;4.45;;;21.20;35.20;;;;;;5000520;28;20046;-86
2023/06/18 00:42:40;;;;;;;5.18;3.92;;;21.20;35.30;;;;;;4995414;28;20057;-88
2023/06/18 00:45:11;;;;;;;9.63;4.90;;;21.10;35.60;;;;;;4998005;28;20053;-88
2023/06/18 00:47:42;;;;;;;6.57;4.40;;;21.10;35.80;;;;;;5001332;28;20379;-88
2023/06/18 00:50:12;;;;;;;6.65;4.60;;;21.10;35.80;;;;;;4999024;28;20046;-88
2023/06/18 00:52:44;;;;;;;6.28;4.70;;;21.00;35.80;;;;;;4995116;28;20053;-89
2023/06/18 00:55:13;;;;;;;7.20;4.35;;;21.00;36.00;;;;;;5000285;28;20057;-88
2023/06/18 00:57:42;;;;;;;8.68;4.93;;;21.00;36.20;;;;;;4996241;28;20062;-88
2023/06/18 01:00:13;;;;;;;5.90;4.35;;;21.00;36.30;;;;;;4999719;28;20065;-88
2023/06/18 01:02:45;;;;;;;7.25;4.50;;;20.90;36.50;;;;;;4999831;28;20525;-88
2023/06/18 01:05:14;;;;;;;8.27;4.35;;;20.90;36.50;;;;;;4997546;28;20050;-88
2023/06/18 01:07:43;;;;;;;6.70;4.43;;;20.90;36.50;;;;;;4997452;28;20058;-89
2023/06/18 01:10:13;;;;;;;6.68;4.65;;;20.80;36.60;;;;;;4997573;28;20421;-89
2023/06/18 01:12:42;;;;;;;8.65;4.32;;;20.80;37.10;;;;;;4995842;28;20062;-89
2023/06/18 01:15:12;;;;;;;8.15;4.38;;;20.80;36.70;;;;;;5004786;28;20069;-89
2023/06/18 01:17:46;;;;;;;7.53;4.55;;;20.70;36.90;;;;;;4998759;28;20513;-88
2023/06/18 01:20:16;;;;;;;10.15;4.97;;;20.70;37.00;;;;;;4999242;28;20049;-90
2023/06/18 01:22:51;;;;;;;6.32;4.13;;;20.70;36.90;;;;;;4991782;28;20068;-89
2023/06/18 01:25:20;;;;;;;6.82;4.72;;;20.70;37.10;;;;;;4997965;28;20540;-89
2023/06/18 01:27:50;;;;;;;6.25;4.22;;;20.70;37.20;;;;;;4990960;28;20046;-89
2023/06/18 01:30:19;;;;;;;5.88;4.50;;;20.60;37.30;;;;;;4995469;28;20413;-89
2023/06/18 01:32:46;;;;;;;7.70;4.68;;;20.60;37.60;;;;;;5000002;28;20065;-89
2023/06/18 01:35:15;;;;;;;6.18;4.38;;;20.60;37.70;;;;;;4998087;28;20050;-89
2023/06/18 01:38:11;;;;;;;5.75;4.28;;;20.50;37.90;;;;;;4995240;28;20065;-89
2023/06/18 01:40:45;;;;;;;6.97;4.35;;;20.50;38.20;;;;;;4995471;28;20073;-89
2023/06/18 01:43:22;;;;;;;5.85;4.10;;;20.50;38.20;;;;;;4998493;28;20054;-89
2023/06/18 01:45:57;;;;;;;7.90;4.88;;;20.40;38.40;;;;;;4999199;28;20053;-89
2023/06/18 01:48:27;;;;;;;6.93;4.50;;;20.40;38.40;;;;;;4997589;28;20065;-88
2023/06/18 01:50:57;;;;;;;6.03;4.45;;;20.40;38.50;;;;;;4994233;28;20057;-89
2023/06/18 01:53:26;;;;;;;6.68;4.70;;;20.40;38.50;;;;;;4995932;28;20061;-88
2023/06/18 01:55:56;;;;;;;8.05;4.80;;;20.30;38.50;;;;;;4997974;28;20061;-89
2023/06/18 01:58:24;;;;;;;8.50;5.22;;;20.30;38.60;;;;;;4999341;28;20061;-89
2023/06/18 02:00:53;;;;;;;5.30;4.22;;;20.30;38.60;;;;;;4994991;28;20073;-90
2023/06/18 02:03:21;;;;;;;6.65;4.65;;;20.20;38.80;;;;;;4996896;28;20058;-89
2023/06/18 02:05:48;;;;;;;6.47;4.57;;;20.30;39.00;;;;;;4994250;28;20064;-90
2023/06/18 02:08:16;;;;;;;8.43;5.38;;;20.20;39.20;;;;;;4990023;28;20050;-90
2023/06/18 02:10:43;;;;;;;6.53;4.35;;;20.20;39.30;;;;;;4996864;28;20061;-89
2023/06/18 02:13:11;;;;;;;10.02;5.32;;;20.20;39.40;;;;;;4997961;28;20053;-85
2023/06/18 02:15:38;;;;;;;6.50;4.68;;;20.10;39.50;;;;;;4998130;28;20570;-87
2023/06/18 02:18:08;;;;;;;7.70;5.20;;;20.10;39.60;;;;;;4996335;28;20058;-85
2023/06/18 02:20:36;;;;;;;8.43;4.38;;;20.10;39.80;;;;;;4996261;28;20108;-86
2023/06/18 02:23:04;;;;;;;6.85;4.85;;;20.10;39.80;;;;;;4995512;28;20046;-88
2023/06/18 02:25:32;;;;;;;8.63;5.18;;;20.10;39.90;;;;;;4997039;28;20054;-87
2023/06/18 02:28:00;;;;;;;8.18;4.82;;;20.00;40.00;;;;;;5002297;28;20109;-86
2023/06/18 02:30:28;;;;;;;6.60;4.93;;;20.00;40.10;;;;;;4997097;28;20053;-87
2023/06/18 02:32:56;;;;;;;7.80;4.90;;;20.00;40.20;;;;;;4997181;28;20065;-89
2023/06/18 02:35:25;;;;;;;7.55;5.07;;;20.00;40.20;;;;;;4995258;28;20053;-90
2023/06/18 02:37:53;;;;;;;8.75;5.05;;;20.00;40.30;;;;;;4995940;28;20061;-86
2023/06/18 02:40:20;;;;;;;8.18;5.28;;;20.00;40.40;;;;;;5002101;28;20073;-85
2023/06/18 02:42:48;;;;;;;9.27;4.85;;;20.00;40.40;;;;;;4991614;28;20061;-88
2023/06/18 02:45:17;;;;;;;6.75;5.05;;;19.90;40.50;;;;;;4996438;28;20045;-87
2023/06/18 02:47:44;;;;;;;7.82;5.10;;;19.90;40.60;;;;;;4993504;28;20058;-85
2023/06/18 02:50:12;;;;;;;7.53;5.50;;;19.90;40.60;;;;;;4995909;28;20050;-87
2023/06/18 02:52:42;;;;;;;7.03;4.93;;;19.90;41.20;;;;;;4992830;28;20050;-86
2023/06/18 02:55:11;;;;;;;7.55;5.10;;;19.90;40.80;;;;;;4994371;28;20050;-86
2023/06/18 02:57:40;;;;;;;8.75;5.38;;;19.90;40.80;;;;;;4993573;28;20057;-88
2023/06/18 03:00:10;;;;;;;7.95;5.30;;;19.80;40.70;;;;;;4999956;28;20050;-85
2023/06/18 03:02:38;;;;;;;8.93;5.28;;;19.80;40.70;;;;;;4997127;28;20064;-90
2023/06/18 03:05:06;;;;;;;9.48;5.25;;;19.80;40.70;;;;;;4993415;28;20053;-89
2023/06/18 03:07:38;;;;;;;9.02;4.95;;;19.80;40.70;;;;;;4989947;28;21245;-86
2023/06/18 03:10:08;;;;;;;7.75;5.45;;;19.80;40.70;;;;;;4992138;28;20060;-86
2023/06/18 03:12:36;;;;;;;7.25;5.32;;;19.70;40.70;;;;;;4989520;28;20081;-86
2023/06/18 03:15:05;;;;;;;7.40;5.30;;;19.70;40.80;;;;;;4994633;28;20378;-90
2023/06/18 03:17:33;;;;;;;6.28;5.22;;;19.70;41.10;;;;;;4991806;28;20055;-87
2023/06/18 03:20:00;;;;;;;8.07;5.15;;;19.70;41.10;;;;;;5000481;28;21057;-87
2023/06/18 03:22:28;;;;;;;9.07;5.10;;;19.70;41.30;;;;;;4992604;28;20480;-87
2023/06/18 03:24:56;;;;;;;9.05;6.00;;;19.70;41.40;;;;;;4988349;28;20527;-88
2023/06/18 03:27:25;;;;;;;7.63;5.35;;;19.60;41.40;;;;;;4991504;28;20405;-88
2023/06/18 03:29:55;;;;;;;11.80;4.93;;;19.60;41.40;;;;;;4999355;28;20065;-89
2023/06/18 03:32:23;;;;;;;7.40;4.95;;;19.60;41.40;;;;;;4993874;28;20060;-88
2023/06/18 03:34:51;;;;;;;7.50;5.15;;;19.60;41.50;;;;;;4996732;28;20058;-89
2023/06/18 03:37:18;;;;;;;5.65;4.72;;;19.60;41.60;;;;;;4986710;28;20422;-88
2023/06/18 03:39:46;;;;;;;7.70;5.43;;;19.50;41.60;;;;;;4990779;28;20069;-89
2023/06/18 03:42:16;;;;;;;6.60;5.03;;;19.50;41.70;;;;;;4997056;28;20061;-88
2023/06/18 03:44:45;;;;;;;8.98;5.43;;;19.50;41.70;;;;;;4991302;28;20062;-86
2023/06/18 03:47:12;;;;;;;6.68;5.05;;;19.50;41.80;;;;;;4995007;28;20057;-88
2023/06/18 03:49:39;;;;;;;10.77;5.35;;;19.40;41.70;;;;;;4997736;28;20058;-88
2023/06/18 03:52:08;;;;;;;7.25;5.10;;;19.50;41.80;;;;;;4992613;28;20062;-88
2023/06/18 03:54:35;;;;;;;9.27;5.50;;;19.40;41.80;;;;;;4986989;28;20068;-88
2023/06/18 03:57:04;;;;;;;9.10;5.07;;;19.40;41.90;;;;;;4993876;28;20081;-87
2023/06/18 03:59:33;;;;;;;11.23;5.90;;;19.40;42.50;;;;;;4991647;28;20073;-88
2023/06/18 04:02:02;;;;;;;8.55;5.63;;;19.40;42.00;;;;;;4989451;28;20050;-91
2023/06/18 04:04:33;;;;;;;7.90;5.50;;;19.40;42.10;;;;;;4989256;28;20058;-87
2023/06/18 04:07:01;;;;;;;7.53;5.10;;;19.40;42.10;;;;;;4981529;28;20486;-88
2023/06/18 04:09:29;;;;;;;6.55;4.95;;;19.40;42.10;;;;;;4995279;28;20050;-88
2023/06/18 04:11:56;;;;;;;7.60;5.13;;;19.40;42.10;;;;;;4993766;28;20058;-87
2023/06/18 04:14:25;;;;;;;8.60;5.43;;;19.40;42.10;;;;;;4991653;28;20061;-89
2023/06/18 04:17:06;;;;;;;11.13;5.30;;;19.40;42.10;;;;;;4987447;28;20441;-86
2023/06/18 04:19:33;;;;;;;7.85;5.32;;;19.40;42.30;;;;;;4989266;28;20069;-86
2023/06/18 04:22:01;;;;;;;6.75;5.00;;;19.40;42.20;;;;;;4994992;28;20056;-87
2023/06/18 04:24:29;;;;;;;9.50;6.07;;;19.40;42.20;;;;;;4999209;28;20050;-87
2023/06/18 04:26:57;;;;;;;8.35;5.35;;;19.40;42.20;;;;;;4997871;28;20061;-87
2023/06/18 04:29:24;;;;;;;7.47;5.20;;;19.40;42.10;;;;;;4989250;28;20058;-87
2023/06/18 04:31:52;;;;;;;7.03;5.28;;;19.40;42.20;;;;;;4992178;28;20057;-94
2023/06/18 04:34:21;;;;;;;7.32;5.30;;;19.40;42.40;;;;;;4999877;28;20057;-94
2023/06/18 04:36:48;;;;;;;7.63;5.65;;;19.40;42.50;;;;;;4995071;28;20501;-91
2023/06/18 04:39:16;;;;;;;6.88;4.78;;;19.40;42.50;;;;;;4995891;28;20240;-90
2023/06/18 04:41:44;;;;;;;7.60;5.60;;;19.40;42.50;;;;;;5000373;28;20060;-92
2023/06/18 04:44:13;;;;;;;8.90;5.15;;;19.40;42.60;;;;;;4996821;28;20548;-89
2023/06/18 04:46:41;;;;;;;6.95;4.90;;;19.30;42.50;;;;;;4997635;28;20121;-93
2023/06/18 04:49:47;;;;;;;7.07;5.13;;;19.40;42.50;;;;;;5002976;28;20053;-95
2023/06/18 04:52:16;;;;;;;7.07;5.10;;;19.40;42.60;;;;;;5025565;23;20030;-94
2023/06/18 04:54:45;;;;;;;8.63;5.28;;;19.40;42.50;;;;;;4998678;28;20061;-92
2023/06/18 04:57:12;;;;;;;7.90;5.50;;;19.40;43.00;;;;;;4997742;28;20042;-89
2023/06/18 04:59:42;;;;;;;7.40;5.18;;;19.40;42.60;;;;;;4997348;28;20093;-93
2023/06/18 05:02:09;;;;;;;8.40;5.95;;;19.40;42.60;;;;;;4997485;28;20057;-89
2023/06/18 05:04:36;;;;;;;7.38;5.18;;;19.40;42.80;;;;;;4993987;28;20050;-93
2023/06/18 05:07:04;;;;;;;9.07;5.43;;;19.40;42.80;;;;;;4999869;28;20030;-95
2023/06/18 05:09:33;;;;;;;9.63;5.47;;;19.40;42.80;;;;;;4999230;28;20054;-90
2023/06/18 05:12:01;;;;;;;8.35;5.38;;;19.40;42.80;;;;;;4989761;28;20892;-90
2023/06/18 05:14:28;;;;;;;9.52;5.72;;;19.40;42.70;;;;;;4993232;28;20049;-90
2023/06/18 05:16:56;;;;;;;10.07;5.35;;;19.40;42.80;;;;;;4989888;28;20049;-88
2023/06/18 05:19:23;;;;;;;8.15;5.70;;;19.40;43.20;;;;;;4993759;28;20060;-88
2023/06/18 05:21:50;;;;;;;8.43;5.13;;;19.50;42.80;;;;;;4992890;28;20046;-88
2023/06/18 05:24:18;;;;;;;7.63;5.00;;;19.50;42.80;;;;;;4995357;28;20520;-89
2023/06/18 05:26:46;;;;;;;7.90;5.45;;;19.50;42.70;;;;;;4992124;28;20405;-89
2023/06/18 05:29:14;;;;;;;6.70;5.35;;;19.50;42.90;;;;;;4993717;28;20054;-89
2023/06/18 05:31:41;;;;;;;10.88;5.60;;;19.60;42.90;;;;;;4992721;28;20055;-93
2023/06/18 05:34:08;;;;;;;13.13;7.13;;;19.60;43.00;;;;;;4989899;28;20521;-93
2023/06/18 05:36:36;;;;;;;8.18;5.45;;;19.60;43.10;;;;;;4986993;28;20061;-90
2023/06/18 05:39:03;;;;;;;8.35;5.57;;;19.70;43.20;;;;;;4991996;28;20060;-92
2023/06/18 05:41:31;;;;;;;6.28;4.78;;;19.70;43.20;;;;;;4992815;28;20052;-88
2023/06/18 05:44:00;;;;;;;5.80;5.15;;;19.70;43.20;;;;;;4993111;28;20061;-87
2023/06/18 05:46:27;;;;;;;8.88;5.10;;;19.80;43.30;;;;;;4991229;28;20984;-88
2023/06/18 05:48:58;;;;;;;8.32;5.07;;;19.80;43.30;;;;;;4991670;28;20058;-93
2023/06/18 05:51:25;;;;;;;6.45;4.65;;;19.90;43.30;;;;;;4989147;28;20413;-87
2023/06/18 05:54:03;;;;;;;8.63;5.22;;;19.90;43.30;;;;;;4980759;28;20058;-86
2023/06/18 05:56:31;;;;;;;8.18;4.97;;;20.00;43.40;;;;;;4992895;28;20050;-86
2023/06/18 05:59:00;;;;;;;7.53;4.85;;;20.00;43.30;;;;;;4993151;28;20056;-85
2023/06/18 06:01:28;;;;;;;6.47;4.78;;;20.10;43.40;;;;;;4984149;28;20050;-86
2023/06/18 06:03:55;;;;;;;6.20;4.93;;;20.20;43.40;;;;;;4985504;28;20061;-87
2023/06/18 06:06:22;;;;;;;6.85;4.78;;;20.20;43.50;;;;;;4987287;28;20069;-87
2023/06/18 06:08:50;;;;;;;6.82;5.00;;;20.20;43.50;;;;;;4989402;28;20440;-86
2023/06/18 06:11:17;;;;;;;10.18;5.35;;;20.30;43.70;;;;;;4987068;28;20049;-86
2023/06/18 06:13:45;;;;;;;7.55;5.38;;;20.40;43.70;;;;;;4987485;28;20058;-86
2023/06/18 06:16:14;;;;;;;7.50;5.32;;;20.40;43.50;;;;;;4990889;28;20058;-86
2023/06/18 06:18:42;;;;;;;7.60;5.05;;;20.50;43.70;;;;;;4986319;28;20418;-86
2023/06/18 06:21:09;;;;;;;7.75;5.30;;;20.50;43.50;;;;;;4989779;28;20069;-86
2023/06/18 06:23:37;;;;;;;6.55;4.85;;;20.60;43.40;;;;;;4988573;28;20058;-86
2023/06/18 06:26:04;;;;;;;6.97;4.90;;;20.60;43.50;;;;;;4990445;28;20057;-86
2023/06/18 06:28:31;;;;;;;6.95;5.35;;;20.70;43.50;;;;;;4986365;28;20053;-86
2023/06/18 06:30:59;;;;;;;6.78;5.07;;;20.70;43.50;;;;;;4994733;28;20501;-86
2023/06/18 06:33:29;;;;;;;6.50;4.60;;;20.80;43.50;;;;;;4987313;28;20085;-86
2023/06/18 06:35:57;;;;;;;8.98;5.25;;;20.90;43.60;;;;;;4986360;28;20058;-87
2023/06/18 06:38:24;;;;;;;7.55;4.75;;;20.90;43.60;;;;;;4984335;28;20529;-86
2023/06/18 06:40:51;;;;;;;7.22;5.10;;;20.90;43.50;;;;;;4990412;28;20540;-87
2023/06/18 06:43:19;;;;;;;9.07;4.55;;;21.00;43.50;;;;;;4989368;28;20041;-86
2023/06/18 06:45:47;;;;;;;7.50;4.88;;;21.00;43.40;;;;;;4992609;28;20061;-87
2023/06/18 06:48:14;;;;;;;7.03;4.97;;;21.00;43.40;;;;;;4986789;28;20072;-86
2023/06/18 06:50:43;;;;;;;8.50;5.40;;;21.10;43.50;;;;;;4988044;28;20046;-86
2023/06/18 06:53:10;;;;;;;7.05;4.85;;;21.20;43.70;;;;;;4986130;28;20054;-90
2023/06/18 06:55:37;;;;;;;6.57;5.07;;;21.20;43.50;;;;;;4988236;28;20057;-90
2023/06/18 06:58:05;;;;;;;7.68;5.40;;;21.30;43.40;;;;;;4992489;28;20060;-89
2023/06/18 07:00:32;;;;;;;7.28;4.95;;;21.30;43.60;;;;;;4991340;28;20054;-90
2023/06/18 07:02:59;;;;;;;7.15;5.03;;;21.30;43.60;;;;;;4986616;28;20494;-90
2023/06/18 07:05:27;;;;;;;10.65;5.15;;;21.40;43.40;;;;;;4992449;28;20386;-90
2023/06/18 07:07:55;;;;;;;8.05;4.88;;;21.50;43.40;;;;;;4988172;28;20066;-90
2023/06/18 07:10:23;;;;;;;7.63;5.03;;;21.50;43.50;;;;;;4986969;28;20512;-90
2023/06/18 07:12:50;;;;;;;7.93;5.45;;;21.60;43.40;;;;;;4987159;28;20054;-90
2023/06/18 07:15:18;;;;;;;7.68;5.30;;;21.60;43.40;;;;;;4991031;28;20120;-90
2023/06/18 07:17:45;;;;;;;8.60;5.30;;;21.70;43.50;;;;;;4993458;28;20421;-88
2023/06/18 07:20:13;;;;;;;7.80;4.85;;;21.80;43.50;;;;;;4983590;28;20053;-92
2023/06/18 07:22:40;;;;;;;8.95;5.43;;;21.90;43.60;;;;;;4983166;28;20058;-89
2023/06/18 07:25:09;;;;;;;6.65;5.22;;;21.90;43.50;;;;;;4992194;28;20054;-89
2023/06/18 07:27:37;;;;;;;8.00;5.50;;;22.00;43.70;;;;;;4991862;28;20054;-89
2023/06/18 07:30:05;;;;;;;8.82;5.32;;;22.10;43.60;;;;;;4984924;28;20054;-90
2023/06/18 07:32:33;;;;;;;8.25;5.18;;;22.20;43.40;;;;;;4989756;28;20056;-91
2023/06/18 07:35:02;;;;;;;7.28;5.65;;;22.20;43.50;;;;;;4988214;28;20054;-90
2023/06/18 07:37:29;;;;;;;9.13;5.53;;;22.30;43.50;;;;;;4985471;28;20053;-89
2023/06/18 07:39:57;;;;;;;8.77;5.53;;;22.40;43.50;;;;;;4993884;28;20398;-89
2023/06/18 07:42:26;;;;;;;6.40;5.10;;;22.50;43.40;;;;;;4989894;28;20050;-93
2023/06/18 07:44:53;;;;;;;6.22;5.28;;;22.60;43.30;;;;;;4997204;28;20061;-89
2023/06/18 07:47:20;;;;;;;7.13;5.43;;;22.70;43.20;;;;;;4990199;28;20058;-90
2023/06/18 07:49:48;;;;;;;6.30;5.20;;;22.70;43.30;;;;;;4988269;28;20051;-88
2023/06/18 07:52:15;;;;;;;7.05;5.25;;;22.80;43.20;;;;;;4989765;28;20054;-89
2023/06/18 07:54:43;;;;;;;7.22;5.15;;;22.90;43.00;;;;;;4990899;28;20454;-89
2023/06/18 07:57:10;;;;;;;6.63;5.20;;;23.00;43.20;;;;;;4988686;28;20697;-89
2023/06/18 07:59:39;;;;;;;6.93;4.93;;;23.10;43.10;;;;;;4986999;28;20065;-88
2023/06/18 08:02:06;;;;;;;6.45;5.20;;;23.20;42.90;;;;;;4989390;28;20057;-87
2023/06/18 08:04:34;;;;;;;6.97;5.28;;;23.30;43.00;;;;;;4989356;28;20065;-88
2023/06/18 08:07:01;;;;;;;7.30;5.25;;;23.30;43.00;;;;;;4988932;28;20061;-87
2023/06/18 08:09:28;;;;;;;7.60;5.10;;;23.50;42.70;;;;;;4988558;28;20498;-87
2023/06/18 08:11:56;;;;;;;8.05;5.50;;;23.60;42.80;;;;;;4985517;28;20066;-86
2023/06/18 08:14:23;;;;;;;7.22;5.40;;;23.60;42.80;;;;;;4988760;28;20056;-89
2023/06/18 08:16:54;;;;;;;6.57;5.38;;;23.70;43.00;;;;;;4990624;28;20100;-88
2023/06/18 08:19:21;;;;;;;6.90;5.53;;;23.80;42.80;;;;;;4990048;28;20069;-86
2023/06/18 08:21:49;;;;;;;6.70;5.32;;;24.00;42.60;;;;;;4989646;28;20065;-87
2023/06/18 08:24:16;;;;;;;7.68;5.47;;;24.10;42.40;;;;;;4994591;28;20061;-88
2023/06/18 08:26:43;;;;;;;6.68;5.22;;;24.10;42.20;;;;;;4988964;28;20065;-87
2023/06/18 08:29:11;;;;;;;9.15;5.45;;;24.20;42.40;;;;;;4984914;28;20050;-86
2023/06/18 08:31:40;;;;;;;8.30;5.07;;;24.40;41.70;;;;;;4981873;28;20054;-86
2023/06/18 08:34:10;;;;;;;6.57;4.88;;;24.40;41.40;;;;;;4982415;28;20481;-87
2023/06/18 08:36:37;;;;;;;11.48;6.03;;;24.60;41.40;;;;;;4989800;28;20061;-86
2023/06/18 08:39:05;;;;;;;12.90;5.88;;;24.60;41.20;;;;;;4992771;28;20053;-87
2023/06/18 08:41:32;;;;;;;6.63;5.28;;;24.70;41.10;;;;;;4988834;28;20405;-87
2023/06/18 08:44:00;;;;;;;7.18;5.47;;;24.80;41.00;;;;;;4993265;28;20061;-86
2023/06/18 08:46:29;;;;;;;10.70;5.70;;;24.80;40.90;;;;;;4991349;28;20064;-86
2023/06/18 08:48:59;;;;;;;7.05;5.80;;;24.90;40.80;;;;;;4992875;28;20058;-86
2023/06/18 08:51:28;;;;;;;6.72;5.20;;;25.00;40.60;;;;;;4994572;28;20490;-87
2023/06/18 08:54:02;;;;;;;8.07;5.53;;;25.10;40.70;;;;;;4988252;28;20058;-86
2023/06/18 08:56:31;;;;;;;6.70;4.65;;;25.20;40.60;;;;;;4993217;28;20493;-86
2023/06/18 08:58:58;;;;;;;7.68;5.38;;;25.20;40.60;;;;;;4988818;28;20442;-86
2023/06/18 09:01:26;;;;;;;9.07;5.20;;;25.30;40.90;;;;;;4992815;28;20069;-86
2023/06/18 09:03:55;;;;;;;8.45;5.53;;;25.40;40.40;;;;;;4990992;28;20434;-87
2023/06/18 09:06:24;;;;;;;6.90;5.15;;;25.40;40.40;;;;;;4982640;28;20057;-88
2023/06/18 09:08:54;;;;;;;6.55;4.88;;;25.50;40.00;;;;;;4990054;28;20045;-87
2023/06/18 09:11:21;;;;;;;6.88;5.15;;;25.60;39.80;;;;;;4992612;28;20046;-86
2023/06/18 09:13:49;;;;;;;6.63;5.28;;;25.60;39.70;;;;;;4994081;28;20418;-87
2023/06/18 09:16:16;;;;;;;6.47;4.80;;;25.70;39.90;;;;;;4989183;28;20081;-86
2023/06/18 09:18:43;;;;;;;7.75;5.18;;;25.80;40.30;;;;;;4991935;28;20057;-86
2023/06/18 09:21:11;;;;;;;8.00;5.43;;;25.90;39.40;;;;;;4988735;28;20050;-86
2023/06/18 09:23:39;;;;;;;8.07;5.68;;;25.90;39.30;;;;;;4984807;28;20045;-86
2023/06/18 09:26:08;;;;;;;5.72;5.05;;;26.00;39.30;;;;;;4988862;28;20396;-86
2023/06/18 09:28:38;;;;;;;6.70;4.82;;;26.10;39.20;;;;;;4987107;28;20058;-85
2023/06/18 09:31:06;;;;;;;6.07;4.93;;;26.20;38.80;;;;;;4993056;28;20046;-85
2023/06/18 09:33:35;;;;;;;7.10;5.03;;;26.20;38.60;;;;;;4994018;28;20422;-86
2023/06/18 09:36:04;;;;;;;6.65;4.85;;;26.30;38.10;;;;;;4988947;28;20058;-86
2023/06/18 09:38:37;;;;;;;9.38;5.03;;;26.30;38.00;;;;;;4990659;28;20056;-87
2023/06/18 09:41:13;;;;;;;5.60;4.68;;;26.40;37.90;;;;;;4991511;28;20057;-86
2023/06/18 09:43:43;;;;;;;7.05;4.70;;;26.40;37.90;;;;;;4995947;28;20060;-87
2023/06/18 09:46:12;;;;;;;5.45;4.85;;;26.50;37.90;;;;;;4992068;28;20053;-86
2023/06/18 09:48:41;;;;;;;6.15;4.65;;;26.50;37.90;;;;;;4986430;28;20046;-86
2023/06/18 09:51:09;;;;;;;6.22;4.40;;;26.50;37.80;;;;;;4996952;28;20053;-87
2023/06/18 09:53:37;;;;;;;7.22;4.65;;;26.60;37.70;;;;;;4992529;28;20054;-86
2023/06/18 09:56:10;;;;;;;6.20;4.68;;;26.60;36.90;;;;;;4998012;28;20050;-87
2023/06/18 09:58:46;;;;;;;7.57;4.63;;;26.70;36.60;;;;;;4989954;28;20065;-87
2023/06/18 10:01:15;;;;;;;5.88;4.78;;;26.80;36.50;;;;;;4992154;28;20057;-87
2023/06/18 10:03:43;;;;;;;7.07;5.45;;;26.80;36.70;;;;;;4995489;28;20077;-87
2023/06/18 10:06:16;;;;;;;7.57;4.70;;;26.80;36.30;;;;;;4982891;28;20053;-88
2023/06/18 10:08:45;;;;;;;6.07;4.60;;;26.90;36.10;;;;;;4993542;28;20062;-87
2023/06/18 10:11:14;;;;;;;7.60;4.95;;;26.90;35.90;;;;;;4991443;28;20065;-88
2023/06/18 10:13:47;;;;;;;7.93;5.47;;;27.00;35.80;;;;;;4985575;28;20050;-88
2023/06/18 10:16:17;;;;;;;9.35;6.57;;;27.10;36.00;;;;;;4991243;28;20056;-87
2023/06/18 10:18:56;;;;;;;7.68;5.68;;;27.10;36.00;;;;;;4985738;28;20062;-88
2023/06/18 10:21:25;;;;;;;6.13;5.00;;;27.20;36.00;;;;;;4989181;28;20081;-87
2023/06/18 10:23:57;;;;;;;5.18;4.35;;;27.20;35.90;;;;;;4991246;28;20739;-87
2023/06/18 10:26:25;;;;;;;6.22;4.80;;;27.30;35.80;;;;;;4993039;28;20062;-87
2023/06/18 10:28:53;;;;;;;8.75;5.03;;;27.40;35.80;;;;;;4990366;28;20053;-87
2023/06/18 10:31:21;;;;;;;5.65;4.72;;;27.40;35.80;;;;;;4990162;28;20066;-86
2023/06/18 10:33:49;;;;;;;8.15;4.68;;;27.50;36.00;;;;;;4992965;28;20494;-86
2023/06/18 10:36:17;;;;;;;5.22;4.55;;;27.50;35.90;;;;;;4990392;28;20061;-87
2023/06/18 10:38:46;;;;;;;9.32;4.50;;;27.60;35.80;;;;;;4991533;28;20050;-87
2023/06/18 10:41:17;;;;;;;8.07;4.93;;;27.60;35.50;;;;;;4989084;28;20066;-86
2023/06/18 10:43:50;;;;;;;6.50;4.43;;;27.70;35.10;;;;;;4988944;28;20406;-88
2023/06/18 10:46:19;;;;;;;5.88;4.57;;;27.70;35.10;;;;;;4983172;28;20054;-86
2023/06/18 10:49:13;;;;;;;7.40;4.65;;;27.80;35.10;;;;;;4991737;28;20421;-87
2023/06/18 10:51:40;;;;;;;6.45;4.57;;;27.80;34.70;;;;;;4990998;28;20065;-87
2023/06/18 10:54:22;;;;;;;5.80;4.32;;;27.90;34.70;;;;;;4988900;28;20064;-87
2023/06/18 10:56:54;;;;;;;7.70;4.90;;;27.90;34.00;;;;;;4985659;28;20625;-87
2023/06/18 10:59:35;;;;;;;6.07;4.30;;;28.00;34.20;;;;;;4988016;28;20398;-88
2023/06/18 11:02:04;;;;;;;13.70;5.00;;;28.00;33.50;;;;;;4987812;28;20050;-88
2023/06/18 11:04:33;;;;;;;6.20;4.72;;;28.10;33.70;;;;;;4988388;28;20046;-87
2023/06/18 11:07:18;;;;;;;4.13;3.72;;;28.10;33.80;;;;;;4986829;28;20398;-88
2023/06/18 11:09:51;;;;;;;4.78;3.85;;;28.10;33.10;;;;;;4991885;28;20049;-87
2023/06/18 11:12:19;;;;;;;6.28;3.97;;;28.20;33.20;;;;;;4988350;28;20056;-87
2023/06/18 11:15:05;;;;;;;6.88;4.43;;;28.20;33.20;;;;;;4990211;28;20482;-86
2023/06/18 11:17:35;;;;;;;5.65;4.38;;;28.20;32.80;;;;;;4988025;28;20054;-87
2023/06/18 11:20:13;;;;;;;7.07;4.60;;;28.30;32.80;;;;;;4984557;28;20649;-88
2023/06/18 11:22:42;;;;;;;6.50;4.75;;;28.30;32.90;;;;;;4983832;28;20421;-86
2023/06/18 11:25:12;;;;;;;7.97;4.43;;;28.30;33.10;;;;;;4993614;28;20046;-87
2023/06/18 11:27:41;;;;;;;5.40;4.40;;;28.40;33.40;;;;;;4987496;28;20069;-86
2023/06/18 11:30:10;;;;;;;6.20;4.40;;;28.40;32.90;;;;;;4981808;28;20053;-88
2023/06/18 11:32:40;;;;;;;9.13;4.60;;;28.50;32.80;;;;;;4986935;28;20057;-88
2023/06/18 11:35:08;;;;;;;5.43;4.50;;;28.60;32.70;;;;;;4989492;28;20055;-87
2023/06/18 11:37:39;;;;;;;6.47;4.57;;;28.60;32.10;;;;;;4984668;28;20061;-88
2023/06/18 11:40:08;;;;;;;6.10;4.93;;;28.60;31.60;;;;;;4987867;28;20054;-88
2023/06/18 11:42:37;;;;;;;6.60;4.40;;;28.60;31.30;;;;;;4975044;28;20054;-89
2023/06/18 11:45:07;;;;;;;6.78;5.07;;;28.70;31.30;;;;;;4981073;28;20061;-87
2023/06/18 11:47:46;;;;;;;5.85;4.50;;;28.70;29.80;;;;;;4973298;28;20073;-90
2023/06/18 11:50:42;;;;;;;6.85;4.80;;;28.70;30.20;;;;;;4983673;28;20055;-89
2023/06/18 11:53:12;;;;;;;6.95;4.53;;;28.80;30.60;;;;;;4980991;28;20050;-90
2023/06/18 11:55:41;;;;;;;5.05;4.40;;;28.80;30.40;;;;;;4984986;28;21019;-89
2023/06/18 11:58:09;;;;;;;5.28;4.22;;;28.90;30.50;;;;;;4974506;28;20058;-89
2023/06/18 12:00:38;;;;;;;4.95;3.97;;;29.00;30.50;;;;;;4980564;28;20054;-88
2023/06/18 12:03:08;;;;;;;6.18;4.00;;;29.10;30.90;;;;;;4984453;28;20493;-90
2023/06/18 12:05:48;;;;;;;5.50;4.47;;;29.10;31.20;;;;;;4979900;28;20061;-88
2023/06/18 12:10:55;;;;;;;6.00;4.25;;;29.20;30.00;;;;;;4998773;28;20513;-58
2023/06/18 12:13:30;;;;;;;6.47;4.80;;;29.30;30.20;;;;;;4995872;28;20058;-59
2023/06/18 12:16:03;;;;;;;5.53;4.20;;;29.40;30.30;;;;;;5001682;28;20054;-59
2023/06/18 12:18:36;;;;;;;5.80;4.18;;;29.40;30.40;;;;;;5000358;28;20497;-59
2023/06/18 12:21:05;;;;;;;5.05;4.43;;;29.50;30.00;;;;;;5000350;28;20058;-57
2023/06/18 12:23:34;;;;;;;5.82;4.30;;;29.50;30.30;;;;;;4999164;28;20065;-59
2023/06/18 12:26:01;;;;;;;5.97;4.60;;;29.60;30.20;;;;;;4999691;28;20052;-60
2023/06/18 12:28:33;;;;;;;5.95;4.25;;;29.60;29.80;;;;;;4999509;28;20510;-58
2023/06/18 12:31:06;;;;;;;5.82;3.90;;;29.70;29.80;;;;;;4996593;28;20080;-58
2023/06/18 12:33:41;;;;;;;4.70;4.13;;;29.70;30.10;;;;;;4997615;28;20061;-58
2023/06/18 12:36:09;;;;;;;5.13;3.90;;;29.80;30.30;;;;;;5000105;28;20050;-58
2023/06/18 12:38:41;;;;;;;6.45;4.07;;;29.80;30.70;;;;;;4998737;28;20065;-57
2023/06/18 12:41:08;;;;;;;7.57;3.97;;;29.80;30.40;;;;;;4999692;28;20532;-58
2023/06/18 12:43:40;;;;;;;4.40;3.95;;;29.80;30.70;;;;;;5001935;28;20963;-58
2023/06/18 12:46:08;;;;;;;6.32;4.45;;;29.90;30.20;;;;;;4999879;28;20054;-58
2023/06/18 12:48:40;;;;;;;4.45;3.95;;;29.90;30.00;;;;;;4996789;28;20057;-58
2023/06/18 12:51:08;;;;;;;6.18;4.15;;;29.90;30.00;;;;;;4998320;28;20049;-57
2023/06/18 12:53:35;;;;;;;6.30;4.00;;;29.90;30.00;;;;;;4999741;28;20054;-56
2023/06/18 12:56:20;;;;;;;6.10;4.20;;;29.90;29.80;;;;;;5001982;28;20486;-56
2023/06/18 12:58:47;;;;;;;5.75;4.28;;;29.90;29.80;;;;;;4997425;28;20057;-57